createdAt,value
2023-05-07T00:00:10.462Z,54.99
2023-05-07T00:02:59.775Z,58.76
2023-05-07T00:05:29.256Z,58.29
2023-05-07T00:07:59.638Z,57.92
2023-05-07T00:10:28.950Z,57.23
2023-05-07T00:12:57.879Z,57.50
2023-05-07T00:15:28.455Z,56.50
2023-05-07T00:17:58.628Z,59.08
2023-05-07T00:20:27.797Z,57.25
2023-05-07T00:22:56.682Z,55.85
2023-05-07T00:25:25.800Z,57.38
2023-05-07T00:27:54.695Z,56.62
2023-05-07T00:30:23.861Z,57.76
2023-05-07T00:32:54.089Z,56.71
2023-05-07T00:35:23.127Z,57.26
2023-05-07T00:37:52.002Z,55.25
2023-05-07T00:40:21.075Z,54.97
2023-05-07T00:42:50.096Z,57.20
2023-05-07T00:45:19.201Z,56.37
2023-05-07T00:47:48.195Z,58.41
2023-05-07T00:50:20.172Z,54.83
2023-05-07T00:52:49.191Z,57.47
2023-05-07T00:55:18.326Z,56.99
2023-05-07T00:57:47.475Z,55.72
2023-05-07T01:00:16.704Z,57.36
2023-05-07T01:02:45.787Z,55.41
2023-05-07T01:05:17.354Z,54.45
2023-05-07T01:07:48.815Z,57.34
2023-05-07T01:10:18.123Z,58.52
2023-05-07T01:12:48.178Z,55.02
2023-05-07T01:15:17.573Z,54.40
2023-05-07T01:17:46.656Z,60.11
2023-05-07T01:20:22.759Z,57.41
2023-05-07T01:22:55.556Z,57.30
2023-05-07T01:25:25.465Z,55.87
2023-05-07T01:27:57.152Z,57.06
2023-05-07T01:30:31.870Z,55.36
2023-05-07T01:33:05.176Z,56.11
2023-05-07T01:35:38.601Z,57.10
2023-05-07T01:38:11.417Z,58.86
2023-05-07T01:40:40.935Z,55.67
2023-05-07T01:43:10.218Z,57.69
2023-05-07T01:45:40.874Z,56.44
2023-05-07T01:48:10.688Z,55.24
2023-05-07T01:50:39.821Z,55.15
2023-05-07T01:53:08.718Z,54.87
2023-05-07T01:55:39.192Z,57.20
2023-05-07T01:58:08.111Z,56.52
2023-05-07T02:00:37.328Z,55.52
2023-05-07T02:03:06.707Z,56.90
2023-05-07T02:05:43.847Z,57.00
2023-05-07T02:08:29.876Z,59.21
2023-05-07T02:11:00.991Z,59.64
2023-05-07T02:13:31.696Z,57.51
2023-05-07T02:16:00.972Z,59.21
2023-05-07T02:18:30.670Z,57.40
2023-05-07T02:20:59.857Z,57.55
2023-05-07T02:23:28.637Z,55.65
2023-05-07T02:25:57.980Z,56.47
2023-05-07T02:28:28.124Z,54.80
2023-05-07T02:31:20.536Z,56.68
2023-05-07T02:33:49.568Z,55.90
2023-05-07T02:36:19.012Z,59.16
2023-05-07T02:38:56.804Z,55.59
2023-05-07T02:41:25.949Z,55.04
2023-05-07T02:43:56.237Z,56.06
2023-05-07T02:46:25.949Z,55.75
2023-05-07T02:49:02.036Z,56.78
2023-05-07T02:51:32.131Z,57.56
2023-05-07T02:54:04.505Z,56.41
2023-05-07T02:56:34.867Z,58.11
2023-05-07T02:59:05.174Z,55.70
2023-05-07T03:01:39.023Z,57.72
2023-05-07T03:04:09.830Z,58.15
2023-05-07T03:06:38.961Z,57.70
2023-05-07T03:09:08.281Z,58.89
2023-05-07T03:11:37.483Z,57.00
2023-05-07T03:14:07.788Z,59.26
2023-05-07T03:16:37.207Z,58.97
2023-05-07T03:19:07.026Z,57.20
2023-05-07T03:21:36.301Z,58.83
2023-05-07T03:24:05.235Z,59.99
2023-05-07T03:26:34.399Z,59.18
2023-05-07T03:29:03.184Z,59.38
2023-05-07T03:31:33.951Z,60.61
2023-05-07T03:34:03.936Z,61.19
2023-05-07T03:36:33.032Z,61.93
2023-05-07T03:39:01.864Z,62.05
2023-05-07T03:41:38.787Z,61.92
2023-05-07T03:44:07.852Z,61.43
2023-05-07T03:46:38.958Z,60.45
2023-05-07T03:49:08.014Z,59.31
2023-05-07T03:51:37.761Z,58.72
2023-05-07T03:54:08.078Z,57.89
2023-05-07T03:56:37.396Z,60.80
2023-05-07T03:59:06.147Z,61.27
2023-05-07T04:01:35.493Z,61.33
2023-05-07T04:04:06.181Z,63.35
2023-05-07T04:06:37.565Z,64.95
2023-05-07T04:09:06.463Z,64.30
2023-05-07T04:11:35.871Z,63.00
2023-05-07T04:14:04.795Z,64.83
2023-05-07T04:16:34.032Z,63.04
2023-05-07T04:19:03.258Z,64.01
2023-05-07T04:21:34.489Z,64.52
2023-05-07T04:24:05.142Z,65.50
2023-05-07T04:26:34.994Z,65.00
2023-05-07T04:29:03.790Z,63.34
2023-05-07T04:31:36.432Z,64.80
2023-05-07T04:34:05.415Z,65.50
2023-05-07T04:36:36.029Z,65.61
2023-05-07T04:39:11.592Z,63.92
2023-05-07T04:41:42.812Z,64.09
2023-05-07T04:44:12.461Z,62.67
2023-05-07T04:46:41.709Z,63.71
2023-05-07T04:49:11.340Z,64.51
2023-05-07T04:51:45.048Z,64.41
2023-05-07T04:54:16.186Z,65.19
2023-05-07T04:56:45.626Z,64.95
2023-05-07T04:59:14.398Z,64.74
2023-05-07T05:01:43.825Z,64.39
2023-05-07T05:04:12.822Z,65.32
2023-05-07T05:06:44.020Z,65.63
2023-05-07T05:09:14.058Z,65.85
2023-05-07T05:11:44.521Z,64.76
2023-05-07T05:14:13.707Z,65.84
2023-05-07T05:16:43.585Z,66.00
2023-05-07T05:19:13.039Z,65.41
2023-05-07T05:21:45.016Z,65.20
2023-05-07T05:24:15.102Z,64.39
2023-05-07T05:26:44.517Z,63.03
2023-05-07T05:29:13.697Z,64.25
2023-05-07T05:31:44.917Z,64.19
2023-05-07T05:34:13.940Z,63.36
2023-05-07T05:36:45.798Z,61.74
2023-05-07T05:39:15.798Z,60.70
2023-05-07T05:41:45.657Z,60.53
2023-05-07T05:44:16.099Z,59.96
2023-05-07T05:46:46.240Z,59.74
2023-05-07T05:49:15.837Z,59.28
2023-05-07T05:51:47.059Z,59.66
2023-05-07T05:54:16.917Z,59.46
2023-05-07T05:56:46.081Z,59.08
2023-05-07T05:59:16.075Z,58.69
2023-05-07T06:01:45.882Z,58.45
2023-05-07T06:04:14.733Z,58.40
2023-05-07T06:06:44.427Z,57.87
2023-05-07T06:09:15.293Z,57.63
2023-05-07T06:11:46.879Z,57.27
2023-05-07T06:14:16.202Z,56.67
2023-05-07T06:16:45.958Z,57.17
2023-05-07T06:19:14.951Z,56.72
2023-05-07T06:21:45.698Z,56.44
2023-05-07T06:24:16.103Z,55.95
2023-05-07T06:26:45.937Z,56.49
2023-05-07T06:29:15.850Z,56.30
2023-05-07T06:31:45.860Z,55.45
2023-05-07T06:34:16.180Z,55.14
2023-05-07T06:36:45.674Z,53.78
2023-05-07T06:39:24.864Z,53.96
2023-05-07T06:41:55.584Z,54.30
2023-05-07T06:44:29.089Z,52.88
2023-05-07T06:47:08.366Z,54.22
2023-05-07T06:49:41.346Z,53.18
2023-05-07T06:52:10.850Z,53.55
2023-05-07T06:54:41.203Z,53.83
2023-05-07T06:57:10.969Z,52.44
2023-05-07T06:59:39.849Z,51.72
2023-05-07T07:02:09.613Z,51.88
2023-05-07T07:04:39.747Z,53.00
2023-05-07T07:07:12.590Z,52.15
2023-05-07T07:09:44.617Z,52.11
2023-05-07T07:12:15.292Z,52.02
2023-05-07T07:14:45.206Z,51.81
2023-05-07T07:17:15.508Z,52.26
2023-05-07T07:19:44.303Z,51.53
2023-05-07T07:22:13.645Z,51.22
2023-05-07T07:24:44.085Z,51.14
2023-05-07T07:27:15.566Z,51.47
2023-05-07T07:29:44.479Z,50.21
2023-05-07T07:32:14.041Z,50.95
2023-05-07T07:34:43.352Z,51.05
2023-05-07T07:37:12.672Z,48.06
2023-05-07T07:39:42.190Z,50.20
2023-05-07T07:42:13.330Z,49.58
2023-05-07T07:44:43.470Z,48.84
2023-05-07T07:47:15.385Z,49.88
2023-05-07T07:49:45.446Z,47.73
2023-05-07T07:52:14.707Z,48.09
2023-05-07T07:54:45.088Z,48.50
2023-05-07T07:57:16.135Z,45.51
2023-05-07T07:59:45.407Z,46.47
2023-05-07T08:02:16.081Z,46.97
2023-05-07T08:04:45.593Z,44.74
2023-05-07T08:07:14.946Z,45.74
2023-05-07T08:09:46.831Z,45.84
2023-05-07T08:12:18.059Z,45.80
2023-05-07T08:14:47.133Z,42.77
2023-05-07T08:17:17.107Z,43.71
2023-05-07T08:19:47.146Z,45.59
2023-05-07T08:22:19.109Z,44.82
2023-05-07T08:24:48.072Z,42.65
2023-05-07T08:27:18.592Z,41.02
2023-05-07T08:29:49.135Z,42.21
2023-05-07T08:32:20.585Z,42.76
2023-05-07T08:34:49.566Z,41.86
2023-05-07T08:37:18.942Z,43.32
2023-05-07T08:39:48.458Z,39.65
2023-05-07T08:42:25.355Z,41.52
2023-05-07T08:44:56.702Z,41.85
2023-05-07T08:47:27.191Z,39.57
2023-05-07T08:49:56.564Z,39.78
2023-05-07T08:52:26.636Z,40.11
2023-05-07T08:54:55.951Z,41.92
2023-05-07T08:57:28.137Z,40.32
2023-05-07T08:59:57.050Z,41.99
2023-05-07T09:02:26.628Z,41.22
2023-05-07T09:04:56.814Z,40.89
2023-05-07T09:07:27.041Z,39.49
2023-05-07T09:09:56.698Z,38.66
2023-05-07T09:12:26.068Z,39.18
2023-05-07T09:14:56.409Z,37.33
2023-05-07T09:17:25.813Z,37.30
2023-05-07T09:19:55.195Z,38.25
2023-05-07T09:22:24.479Z,37.47
2023-05-07T09:25:03.736Z,38.12
2023-05-07T09:27:33.545Z,39.16
2023-05-07T09:30:07.276Z,37.85
2023-05-07T09:32:39.247Z,38.98
2023-05-07T09:35:17.088Z,38.57
2023-05-07T09:37:47.985Z,38.97
2023-05-07T09:40:24.598Z,39.68
2023-05-07T09:42:55.730Z,41.27
2023-05-07T09:45:28.553Z,39.91
2023-05-07T09:47:59.592Z,40.42
2023-05-07T09:50:31.963Z,40.91
2023-05-07T09:53:01.675Z,41.04
2023-05-07T09:55:30.970Z,41.45
2023-05-07T09:58:00.971Z,39.87
2023-05-07T10:00:33.673Z,40.71
2023-05-07T10:03:11.925Z,39.50
2023-05-07T10:05:53.834Z,39.64
2023-05-07T10:08:25.324Z,39.63
2023-05-07T10:10:57.940Z,38.61
2023-05-07T10:13:29.999Z,38.98
2023-05-07T10:16:02.682Z,40.12
2023-05-07T10:18:37.309Z,39.02
2023-05-07T10:21:13.940Z,37.44
2023-05-07T10:23:43.709Z,37.69
2023-05-07T10:26:14.474Z,39.31
2023-05-07T10:28:45.559Z,38.34
2023-05-07T10:31:38.126Z,38.77
2023-05-07T10:34:12.599Z,38.30
2023-05-07T10:36:42.172Z,38.21
2023-05-07T10:39:12.789Z,37.61
2023-05-07T10:41:42.785Z,37.91
2023-05-07T10:44:13.191Z,37.30
2023-05-07T10:46:43.623Z,37.50
2023-05-07T10:49:18.008Z,37.92
2023-05-07T10:52:13.506Z,37.58
2023-05-07T10:54:44.303Z,38.58
2023-05-07T10:57:30.702Z,38.48
2023-05-07T11:00:00.992Z,37.60
2023-05-07T11:02:49.173Z,36.23
2023-05-07T11:05:23.185Z,36.74
2023-05-07T11:07:59.815Z,36.63
2023-05-07T11:10:51.822Z,37.34
2023-05-07T11:13:45.052Z,36.46
2023-05-07T11:16:21.765Z,37.94
2023-05-07T11:18:55.081Z,36.68
2023-05-07T11:21:35.895Z,36.54
2023-05-07T11:24:31.172Z,35.14
2023-05-07T11:27:04.565Z,36.17
2023-05-07T11:29:34.413Z,35.84
2023-05-07T11:32:14.666Z,35.52
2023-05-07T11:34:53.646Z,34.73
2023-05-07T11:37:24.971Z,34.65
2023-05-07T11:40:05.495Z,35.11
2023-05-07T11:42:35.759Z,34.75
2023-05-07T11:45:05.054Z,35.17
2023-05-07T11:47:34.348Z,34.45
2023-05-07T11:50:07.453Z,35.39
2023-05-07T11:52:39.548Z,35.52
2023-05-07T11:55:09.417Z,35.23
2023-05-07T11:57:38.759Z,35.35
2023-05-07T12:00:09.118Z,34.86
2023-05-07T12:02:45.088Z,34.96
2023-05-07T12:05:14.643Z,34.88
2023-05-07T12:07:45.528Z,34.69
2023-05-07T12:10:15.164Z,34.94
2023-05-07T12:12:47.981Z,34.19
2023-05-07T12:15:18.022Z,34.76
2023-05-07T12:17:47.454Z,34.33
2023-05-07T12:20:16.714Z,34.69
2023-05-07T12:22:47.580Z,33.60
2023-05-07T12:25:20.508Z,34.50
2023-05-07T12:27:53.601Z,33.87
2023-05-07T12:30:22.670Z,35.12
2023-05-07T12:32:54.638Z,34.70
2023-05-07T12:35:28.660Z,34.43
2023-05-07T12:38:00.914Z,33.80
2023-05-07T12:40:37.595Z,33.83
2023-05-07T12:43:06.815Z,34.26
2023-05-07T12:45:39.118Z,35.02
2023-05-07T12:48:08.511Z,34.69
2023-05-07T12:50:37.344Z,34.71
2023-05-07T12:53:09.017Z,33.83
2023-05-07T12:55:45.254Z,34.32
2023-05-07T12:58:21.034Z,34.46
2023-05-07T13:00:50.508Z,34.26
2023-05-07T13:03:26.357Z,35.00
2023-05-07T13:05:58.709Z,34.68
2023-05-07T13:08:33.657Z,35.00
2023-05-07T13:11:04.544Z,34.66
2023-05-07T13:13:34.266Z,33.51
2023-05-07T13:16:03.639Z,33.83
2023-05-07T13:18:33.753Z,34.63
2023-05-07T13:21:03.458Z,34.11
2023-05-07T13:23:33.875Z,34.05
2023-05-07T13:26:08.404Z,32.96
2023-05-07T13:28:40.879Z,33.25
2023-05-07T13:31:09.700Z,34.84
2023-05-07T13:33:38.984Z,33.16
2023-05-07T13:36:08.090Z,33.35
2023-05-07T13:38:38.709Z,33.96
2023-05-07T13:41:07.652Z,32.89
2023-05-07T13:43:36.734Z,33.33
2023-05-07T13:46:05.700Z,32.28
2023-05-07T13:48:34.738Z,33.86
2023-05-07T13:51:03.981Z,33.17
2023-05-07T13:53:33.081Z,32.49
2023-05-07T13:56:05.675Z,35.33
2023-05-07T13:58:36.541Z,33.62
2023-05-07T14:01:07.177Z,32.42
2023-05-07T14:03:38.851Z,32.12
2023-05-07T14:06:07.978Z,33.71
2023-05-07T14:08:37.010Z,31.73
2023-05-07T14:11:07.353Z,31.85
2023-05-07T14:13:36.894Z,32.10
2023-05-07T14:16:06.452Z,30.88
2023-05-07T14:18:38.203Z,31.49
2023-05-07T14:21:08.603Z,29.39
2023-05-07T14:23:37.824Z,31.49
2023-05-07T14:26:08.224Z,29.35
2023-05-07T14:28:37.424Z,29.78
2023-05-07T14:31:06.453Z,29.53
2023-05-07T14:33:36.031Z,28.61
2023-05-07T14:36:05.052Z,28.86
2023-05-07T14:38:34.758Z,28.80
2023-05-07T14:41:03.504Z,26.42
2023-05-07T14:43:34.144Z,26.30
2023-05-07T14:46:03.065Z,26.83
2023-05-07T14:48:32.130Z,27.31
2023-05-07T14:51:01.078Z,26.93
2023-05-07T14:53:30.072Z,26.22
2023-05-07T14:55:59.037Z,28.30
2023-05-07T14:58:28.127Z,26.59
2023-05-07T15:00:58.415Z,25.50
2023-05-07T15:03:27.773Z,26.99
2023-05-07T15:05:56.696Z,25.48
2023-05-07T15:08:25.976Z,25.73
2023-05-07T15:10:56.138Z,24.75
2023-05-07T15:13:25.380Z,25.63
2023-05-07T15:15:54.186Z,24.85
2023-05-07T15:18:24.986Z,25.90
2023-05-07T15:20:53.936Z,25.63
2023-05-07T15:23:22.969Z,24.56
2023-05-07T15:25:52.701Z,24.22
2023-05-07T15:28:22.001Z,24.02
2023-05-07T15:30:50.917Z,24.53
2023-05-07T15:33:20.140Z,24.78
2023-05-07T15:35:50.547Z,25.58
2023-05-07T15:38:19.702Z,24.33
2023-05-07T15:40:48.460Z,23.51
2023-05-07T15:43:17.719Z,24.40
2023-05-07T15:45:46.710Z,23.38
2023-05-07T15:48:15.920Z,23.57
2023-05-07T15:50:44.761Z,25.38
2023-05-07T15:53:15.373Z,23.79
2023-05-07T15:55:44.521Z,24.38
2023-05-07T15:58:13.635Z,23.44
2023-05-07T16:00:42.492Z,23.00
2023-05-07T16:03:12.016Z,23.43
2023-05-07T16:05:41.064Z,23.19
2023-05-07T16:08:10.399Z,22.96
2023-05-07T16:10:43.379Z,23.72
2023-05-07T16:13:13.492Z,24.58
2023-05-07T16:15:42.993Z,23.63
2023-05-07T16:18:12.271Z,23.17
2023-05-07T16:20:41.807Z,23.54
2023-05-07T16:23:10.914Z,23.11
2023-05-07T16:25:41.132Z,21.72
2023-05-07T16:28:10.483Z,24.29
2023-05-07T16:30:39.358Z,24.83
2023-05-07T16:33:08.439Z,24.68
2023-05-07T16:35:37.225Z,24.69
2023-05-07T16:38:10.232Z,23.46
2023-05-07T16:40:41.404Z,25.03
2023-05-07T16:43:11.500Z,25.14
2023-05-07T16:45:40.727Z,24.37
2023-05-07T16:48:10.053Z,25.50
2023-05-07T16:50:39.177Z,25.01
2023-05-07T16:53:08.270Z,26.22
2023-05-07T16:55:39.051Z,25.65
2023-05-07T16:58:10.438Z,25.75
2023-05-07T17:00:50.213Z,26.72
2023-05-07T17:03:20.367Z,26.71
2023-05-07T17:05:49.372Z,26.78
2023-05-07T17:08:18.416Z,26.83
2023-05-07T17:10:47.454Z,27.84
2023-05-07T17:13:17.996Z,27.84
2023-05-07T17:15:47.764Z,27.89
2023-05-07T17:18:17.123Z,28.07
2023-05-07T17:20:46.006Z,28.43
2023-05-07T17:23:15.434Z,28.44
2023-05-07T17:25:45.581Z,29.03
2023-05-07T17:28:14.946Z,29.26
2023-05-07T17:30:46.456Z,29.19
2023-05-07T17:33:21.500Z,29.39
2023-05-07T17:35:51.055Z,29.62
2023-05-07T17:38:20.180Z,29.87
2023-05-07T17:40:50.255Z,29.68
2023-05-07T17:43:19.269Z,30.07
2023-05-07T17:45:49.672Z,30.24
2023-05-07T17:48:19.007Z,30.12
2023-05-07T17:50:47.891Z,30.50
2023-05-07T17:53:17.352Z,30.54
2023-05-07T17:55:46.502Z,30.79
2023-05-07T17:58:16.017Z,31.41
2023-05-07T18:00:45.011Z,31.41
2023-05-07T18:03:15.707Z,31.90
2023-05-07T18:05:44.682Z,31.15
2023-05-07T18:08:13.735Z,31.58
2023-05-07T18:10:43.778Z,31.84
2023-05-07T18:13:13.144Z,31.56
2023-05-07T18:15:42.207Z,31.68
2023-05-07T18:18:11.692Z,31.64
2023-05-07T18:20:41.954Z,32.00
2023-05-07T18:23:11.274Z,31.82
2023-05-07T18:25:40.236Z,32.08
2023-05-07T18:28:09.469Z,32.24
2023-05-07T18:30:38.236Z,32.56
2023-05-07T18:33:07.862Z,32.65
2023-05-07T18:35:36.878Z,32.44
2023-05-07T18:38:07.835Z,32.16
2023-05-07T18:40:36.832Z,32.35
2023-05-07T18:43:07.172Z,32.57
2023-05-07T18:45:37.887Z,32.55
2023-05-07T18:48:13.972Z,32.59
2023-05-07T18:50:45.850Z,32.81
2023-05-07T18:53:16.394Z,33.05
2023-05-07T18:55:47.092Z,33.10
2023-05-07T18:58:17.032Z,33.19
2023-05-07T19:00:46.125Z,33.10
2023-05-07T19:03:15.989Z,33.14
2023-05-07T19:05:45.248Z,33.25
2023-05-07T19:08:14.702Z,33.26
2023-05-07T19:10:45.613Z,33.60
2023-05-07T19:13:14.970Z,33.41
2023-05-07T19:15:43.911Z,33.39
2023-05-07T19:18:13.280Z,33.55
2023-05-07T19:20:42.434Z,33.72
2023-05-07T19:23:12.150Z,34.46
2023-05-07T19:25:40.947Z,33.91
2023-05-07T19:28:11.624Z,34.15
2023-05-07T19:30:40.929Z,34.44
2023-05-07T19:33:10.274Z,34.05
2023-05-07T19:35:39.517Z,34.22
2023-05-07T19:38:08.572Z,34.42
2023-05-07T19:40:37.685Z,34.45
2023-05-07T19:43:07.097Z,34.40
2023-05-07T19:45:37.701Z,34.60
2023-05-07T19:48:07.352Z,35.04
2023-05-07T19:50:37.391Z,35.82
2023-05-07T19:53:06.672Z,35.27
2023-05-07T19:55:35.517Z,35.68
2023-05-07T19:58:04.720Z,36.54
2023-05-07T20:00:33.952Z,36.04
2023-05-07T20:03:05.026Z,36.27
2023-05-07T20:05:35.335Z,35.85
2023-05-07T20:08:04.404Z,36.48
2023-05-07T20:10:33.755Z,36.27
2023-05-07T20:13:02.872Z,36.69
2023-05-07T20:15:31.833Z,36.68
2023-05-07T20:18:00.854Z,36.89
2023-05-07T20:20:33.315Z,39.01
2023-05-07T20:23:02.572Z,37.46
2023-05-07T20:25:31.542Z,37.11
2023-05-07T20:28:01.286Z,37.66
2023-05-07T20:30:30.568Z,37.31
2023-05-07T20:32:59.611Z,37.12
2023-05-07T20:35:31.206Z,37.91
2023-05-07T20:38:00.441Z,37.42
2023-05-07T20:40:29.201Z,37.21
2023-05-07T20:42:58.411Z,37.44
2023-05-07T20:45:27.187Z,37.10
2023-05-07T20:47:56.402Z,37.63
2023-05-07T20:50:26.341Z,39.26
2023-05-07T20:52:56.981Z,39.23
2023-05-07T20:55:25.859Z,38.57
2023-05-07T20:57:55.034Z,38.04
2023-05-07T21:00:23.918Z,38.25
2023-05-07T21:02:53.402Z,38.11
2023-05-07T21:05:22.342Z,40.02
2023-05-07T21:07:51.373Z,38.02
2023-05-07T21:10:21.631Z,38.53
2023-05-07T21:12:53.758Z,38.45
2023-05-07T21:15:22.698Z,38.17
2023-05-07T21:17:51.765Z,38.53
2023-05-07T21:20:20.826Z,38.42
2023-05-07T21:22:50.135Z,38.57
2023-05-07T21:25:19.206Z,38.39
2023-05-07T21:27:49.797Z,38.88
2023-05-07T21:30:18.631Z,38.84
2023-05-07T21:32:47.750Z,38.80
2023-05-07T21:35:16.742Z,42.30
2023-05-07T21:37:45.929Z,39.40
2023-05-07T21:40:15.251Z,38.91
2023-05-07T21:42:44.647Z,38.77
2023-05-07T21:45:15.166Z,39.01
2023-05-07T21:47:44.593Z,39.00
2023-05-07T21:50:13.899Z,39.65
2023-05-07T21:52:43.354Z,39.17
2023-05-07T21:55:12.580Z,39.85
2023-05-07T21:57:47.977Z,39.34
2023-05-07T22:00:24.442Z,39.62
2023-05-07T22:02:54.854Z,40.77
2023-05-07T22:05:26.931Z,40.70
2023-05-07T22:07:56.026Z,41.21
2023-05-07T22:10:24.869Z,40.18
2023-05-07T22:12:54.162Z,40.28
2023-05-07T22:15:24.359Z,41.63
2023-05-07T22:17:54.792Z,42.31
2023-05-07T22:20:23.639Z,41.17
2023-05-07T22:22:54.239Z,43.97
2023-05-07T22:25:23.581Z,41.03
2023-05-07T22:27:53.090Z,40.61
2023-05-07T22:30:21.924Z,41.77
2023-05-07T22:32:52.459Z,40.27
2023-05-07T22:35:21.312Z,40.67
2023-05-07T22:37:50.378Z,40.68
2023-05-07T22:40:19.364Z,40.08
2023-05-07T22:42:48.512Z,41.44
2023-05-07T22:45:17.312Z,41.56
2023-05-07T22:47:46.501Z,40.57
2023-05-07T22:50:16.778Z,41.67
2023-05-07T22:52:45.985Z,40.68
2023-05-07T22:55:14.895Z,41.95
2023-05-07T22:57:44.115Z,42.01
2023-05-07T23:00:13.805Z,41.84
2023-05-07T23:02:43.222Z,41.36
2023-05-07T23:05:12.272Z,42.23
2023-05-07T23:07:42.824Z,42.32
2023-05-07T23:10:12.137Z,41.57
2023-05-07T23:12:41.357Z,43.50
2023-05-07T23:15:10.470Z,42.20
2023-05-07T23:17:39.614Z,41.52
2023-05-07T23:20:09.298Z,42.05
2023-05-07T23:22:42.980Z,44.68
2023-05-07T23:25:11.959Z,43.46
2023-05-07T23:27:41.002Z,44.11
2023-05-07T23:30:11.197Z,43.37
2023-05-07T23:32:40.625Z,43.86
2023-05-07T23:35:10.013Z,48.25
2023-05-07T23:37:39.272Z,48.37
2023-05-07T23:40:10.070Z,47.48
2023-05-07T23:42:39.379Z,47.29
2023-05-07T23:45:08.423Z,45.61
2023-05-07T23:47:37.986Z,45.23
2023-05-07T23:50:07.324Z,45.09
2023-05-07T23:52:36.597Z,45.49
2023-05-07T23:55:05.560Z,46.50
2023-05-07T23:57:36.087Z,46.80
